• Join FlightAware (Why Join?)
  • Login
  • US Flag 
04:16PM EDT


 

Airport Tracker/Info


-or-


 

Live Flight TrackerFlight Track Log ✈ ASA3464 ✈ 25-Apr-2012 ✈ KPDX - KONT

Flight Track Log - Related Links

Times and Time Zones

All times are in EDT time to prevent confusion due to time zone crossing. See the ASA3464 flight status page for this flight to view local times or setup timezone preferences in your user account.

Time Position Orientation Groundspeed Altitude Reporting Facility
EDT Latitude Longitude Course Direction KTS MPH feet Rate Location/Type
11:16PM 45.5944 -122.6217 302° West 162 186 600  Level Seattle Center
11:17PM 45.6339 -122.7122 299° West 232 267 2,600 2,100 Climbing Seattle Center
11:18PM 45.6681 -122.7992 268° West 254 292 5,500 2,700 Climbing Seattle Center
11:19PM 45.6667 -122.8622 169° South 256 295 7,600 2,280 Climbing Seattle Center
11:20PM 45.6131 -122.8475 124° Southeast 248 285 9,800 1,980 Climbing Seattle Center
11:21PM 45.5614 -122.7394 123° Southeast 271 312 11,700 1,560 Climbing Seattle Center
11:22PM 45.5144 -122.6353 123° Southeast 301 346 13,000 1,320 Climbing Seattle Center
11:23PM 45.4636 -122.5242 124° Southeast 332 382 14,400 1,260 Climbing Seattle Center
11:24PM 45.4108 -122.4119 123° Southeast 339 390 15,600 1,200 Climbing Seattle Center
11:25PM 45.3575 -122.2953 124° Southeast 349 402 16,900 1,380 Climbing Seattle Center
11:26PM 45.3022 -122.1775 124° Southeast 355 409 18,500 1,380 Climbing Seattle Center
11:27PM 45.2469 -122.0603 154° Southeast 357 411 19,800 1,260 Climbing Seattle Center
11:28PM 45.1611 -122.0011 158° South 351 404 21,100 1,080 Climbing Seattle Center
11:29PM 45.0744 -121.9508 159° South 341 392 22,100 1,080 Climbing Seattle Center
11:30PM 44.9717 -121.8939 159° South 348 400 23,300 1,080 Climbing Seattle Center
11:31PM 44.8797 -121.8431 158° South 353 406 24,400 960 Climbing Seattle Center
11:32PM 44.7864 -121.7897 159° South 362 417 25,300 960 Climbing Seattle Center
11:33PM 44.6928 -121.7386 159° South 364 419 26,400 960 Climbing Seattle Center
11:34PM 44.5997 -121.6881 159° South 363 418 27,300 780 Climbing Seattle Center
11:35PM 44.5069 -121.6375 159° South 362 417 28,100 660 Climbing Seattle Center
11:36PM 44.4142 -121.5878 159° South 361 415 28,700 600 Climbing Seattle Center
11:37PM 44.3217 -121.5369 159° South 361 415 29,400 540 Climbing Seattle Center
11:38PM 44.2286 -121.4869 159° South 362 417 29,900 540 Climbing Seattle Center
11:39PM 44.1150 -121.4267 159° South 366 421 30,500 600 Climbing Seattle Center
11:40PM 44.0189 -121.3756 158° South 370 426 31,200 660 Climbing Seattle Center
11:41PM 43.9258 -121.3244 159° South 368 423 31,900 600 Climbing Seattle Center
11:42PM 43.8344 -121.2750 161° South 359 413 32,500 480 Climbing Seattle Center
11:43PM 43.7442 -121.2308 159° South 363 418 32,900 240 Climbing Seattle Center
11:44PM 43.6506 -121.1819 159° South 360 414 33,000  Climbing Seattle Center
11:45PM 43.5547 -121.1314 159° South 364 419 33,000  Level Seattle Center
11:46PM 43.4572 -121.0789 159° South 371 427 33,000  Level Seattle Center
11:47PM 43.3586 -121.0278 158° South 377 434 33,000  Level Seattle Center
11:48PM 43.2594 -120.9736 161° South 381 438 33,000  Level Seattle Center
11:49PM 43.1353 -120.9164 172° South 388 447 33,000  Level Seattle Center
11:50PM 43.0286 -120.8964 169° South 387 445 33,000  Level Seattle Center
11:51PM 42.9175 -120.8681 170° South 399 459 33,000  Level Seattle Center
11:52PM 42.8081 -120.8425 170° South 399 459 33,000  Level Seattle Center
11:53PM 42.7000 -120.8164 170° South 396 456 33,000  Level Seattle Center
11:54PM 42.5900 -120.7897 170° South 398 458 33,000  Level Seattle Center
11:55PM 42.4806 -120.7639 169° South 398 458 33,000  Level Seattle Center
11:56PM 42.3717 -120.7361 170° South 397 457 33,000  Level Seattle Center
11:57PM 42.2647 -120.7103 170° South 392 451 33,000  Level Seattle Center
11:58PM 42.1589 -120.6853 170° South 388 447 33,000  Level Seattle Center
11:59PM 42.0542 -120.6600 170° South 383 441 33,000  Level Seattle Center
12:00AM 41.9494 -120.6361 170° South 381 438 33,000  Level Seattle Center
12:01AM 41.8436 -120.6117 170° South 383 441 33,000  Level Seattle Center
12:02AM 41.7411 -120.5878 169° South 377 434 33,000  Level Seattle Center
12:03AM 41.6406 -120.5625 170° South 369 425 33,000  Level Seattle Center
12:04AM 41.5394 -120.5389 170° South 369 425 33,000  Level Seattle Center
12:06AM 41.4378 -120.5153 170° South 369 425 33,000  Level Seattle Center
12:07AM 41.3356 -120.4922 170° South 370 426 33,000  Level Seattle Center
12:08AM 41.2347 -120.4692 170° South 368 423 33,000  Level Seattle Center
12:09AM 41.1333 -120.4458 170° South 368 423 33,000  Level Seattle Center
12:10AM 41.0322 -120.4222 168° South 369 425 33,000  Level Seattle Center
12:11AM 40.9111 -120.3894 166° South 369 425 33,000  Level Seattle Center
12:12AM 40.8103 -120.3572 167° South 371 427 33,000  Level Seattle Center
12:13AM 40.7089 -120.3258 166° South 373 429 33,000  Level Seattle Center
12:14AM 40.6069 -120.2933 167° South 374 430 33,000  Level Seattle Center
12:15AM 40.5044 -120.2622 167° South 377 434 33,000  Level Seattle Center
12:16AM 40.4011 -120.2306 167° South 379 436 33,000  Level Seattle Center
12:17AM 40.3072 -120.2019 167° South 379 436 33,000  Level Seattle Center
12:18AM 40.1825 -120.1636 167° South 382 440 33,000  Level Seattle Center
12:19AM 40.0775 -120.1317 167° South 386 444 33,000  Level Seattle Center
12:20AM 39.9658 -120.0986 168° South 393 452 33,000  Level Oakland Center
12:21AM 39.8594 -120.0700 166° South 393 452 33,000  Level Oakland Center
12:22AM 39.7550 -120.0364 167° South 393 452 33,000  Level Oakland Center
12:23AM 39.6483 -120.0053 167° South 393 452 33,000  Level Oakland Center
12:24AM 39.5417 -119.9744 167° South 393 452 33,000  Level Oakland Center
12:25AM 39.4206 -119.9386 167° South 399 459 33,000  Level Oakland Center
12:26AM 39.3117 -119.9053 167° South 399 459 33,000  Level Oakland Center
12:27AM 39.2008 -119.8722 167° South 399 459 33,000  Level Oakland Center
12:28AM 39.0922 -119.8392 167° South 404 465 33,000  Level Oakland Center
12:29AM 38.9833 -119.8061 168° South 404 465 33,000  Level Oakland Center
12:30AM 38.8747 -119.7758 167° South 404 465 33,000  Level Oakland Center
12:31AM 38.7639 -119.7431 167° South 404 465 33,000  Level Oakland Center
12:32AM 38.6489 -119.7103 167° South 411 473 33,000  Level Oakland Center
12:33AM 38.5378 -119.6778 166° South 411 473 33,000  Level Oakland Center
12:34AM 38.4269 -119.6428 165° South 411 473 33,000  Level Oakland Center
12:35AM 38.3306 -119.6100 167° South 411 473 33,000  Level Oakland Center
12:36AM 38.2197 -119.5778 167° South 411 473 33,000  Level Oakland Center
12:37AM 38.1044 -119.5431 168° South 411 473 33,000  Level Oakland Center
12:38AM 37.9894 -119.5108 168° South 417 480 33,000  Level Oakland Center
12:39AM 37.8786 -119.4817 167° South 417 480 33,000  Level Oakland Center
12:40AM 37.7656 -119.4497 167° South 412 474 33,000  Level Oakland Center
12:41AM 37.6525 -119.4181 170° South 417 480 33,000 -60 Level Oakland Center
12:42AM 37.5353 -119.3917 168° South 416 479 32,900  Descending Oakland Center
12:43AM 37.4242 -119.3625 168° South 416 479 33,000  Climbing Oakland Center
12:44AM 37.3111 -119.3311 166° South 416 479 33,000  Level Oakland Center
12:45AM 37.1981 -119.2969 169° South 416 479 33,000  Level Oakland Center
12:46AM 37.0850 -119.2683 167° South 411 473 33,000  Level Oakland Center
12:47AM 36.9719 -119.2369 168° South 416 479 33,000  Level Oakland Center
12:48AM 36.8547 -119.2061 162° South 416 479 33,000 -60 Level Oakland Center
12:49AM 36.7433 -119.1619 157° South 416 479 32,900 -60 Descending Oakland Center
12:50AM 36.6339 -119.1050 156° South 416 479 32,900  Level Oakland Center
12:52AM 36.4203 -118.9858 158° South 417 480 33,000  Climbing Los Angeles Center
12:53AM 36.3111 -118.9303 156° South 417 480 32,900  Descending Los Angeles Center
12:54AM 36.2058 -118.8725 157° South 417 480 33,000  Climbing Los Angeles Center
12:55AM 36.0986 -118.8175 157° South 417 480 33,000 -60 Level Los Angeles Center
12:56AM 35.9914 -118.7625 157° South 417 480 32,900 -60 Descending Los Angeles Center
12:57AM 35.8800 -118.7050 157° South 422 486 32,900  Level Los Angeles Center
12:58AM 35.7728 -118.6478 157° South 428 493 32,900  Level Los Angeles Center
12:59AM 35.6611 -118.5906 157° South 428 493 32,900  Level Los Angeles Center
01:00AM 35.5558 -118.5364 158° South 428 493 33,000  Climbing Los Angeles Center
01:01AM 35.4381 -118.4769 158° South 428 493 33,000  Level Los Angeles Center
01:02AM 35.3286 -118.4228 158° South 428 493 33,000 -300 Level Los Angeles Center
01:03AM 35.2189 -118.3689 157° South 428 493 32,400 -1,380 Descending Los Angeles Center
01:04AM 35.1094 -118.3125 158° South 428 493 30,300 -2,040 Descending Los Angeles Center
01:05AM 35.0183 -118.2669 156° South 418 481 28,400 -1,980 Descending Los Angeles Center
01:06AM 34.9192 -118.2136 159° South 406 467 26,400 -2,040 Descending Los Angeles Center
01:07AM 34.8178 -118.1656 157° South 395 455 24,400 -2,040 Descending Los Angeles Center
01:08AM 34.7183 -118.1153 156° South 390 449 22,400 -1,860 Descending Los Angeles Center
01:09AM 34.6356 -118.0703 124° Southeast 362 417 20,700 -1,200 Descending Los Angeles Center
01:10AM 34.5889 -117.9858 118° Southeast 319 367 20,000 -900 Descending Los Angeles Center
01:11AM 34.5486 -117.8942 119° Southeast 298 343 19,000 -1,200 Descending Los Angeles Center
01:12AM 34.5081 -117.8053 120° Southeast 298 343 17,700 -1,320 Descending Los Angeles Center
01:13AM 34.4675 -117.7186 118° Southeast 298 343 16,400 -1,320 Descending Los Angeles Center
01:14AM 34.4289 -117.6322 119° Southeast 293 337 15,100 -1,200 Descending Los Angeles Center
01:15AM 34.3903 -117.5486 129° Southeast 293 337 14,100 -1,080 Descending Los Angeles Center
01:16AM 34.3431 -117.4772 139° Southeast 284 327 13,000 -1,200 Descending Los Angeles Center
01:17AM 34.2978 -117.4289 140° Southeast 259 298 11,800 -1,440 Descending Los Angeles Center
01:18AM 34.2503 -117.3803 139° Southeast 241 277 10,200 -1,860 Descending Los Angeles Center
01:19AM 34.2069 -117.3344 175° South 224 258 8,100 -1,260 Descending Los Angeles Center
01:20AM 34.1464 -117.3286 168° South 211 243 7,700 -1,020 Descending Los Angeles Center
01:20AM 34.1000 -117.3167 220° Southwest 223 257 6,600 -2,100 Descending Southern California TRACON
01:21AM 34.0500 -117.3667 270° West 234 269 4,500 -1,380 Descending Southern California TRACON
01:23AM 34.0500 -117.5000 273° West 183 211 2,300 -780 Descending Southern California TRACON
01:26AM 34.0556 -117.6256 273° West 171 197 1,100 -540 Descending Los Angeles Center